sensor_id;sensor_type;location;lat;lon;timestamp;P1;durP1;ratioP1;P2;durP2;ratioP2
67548;SDS011;54382;53.524;49.326;2022-07-29T00:00:48;23.95;;;7.93;;
67548;SDS011;54382;53.524;49.326;2022-07-29T00:03:15;16.35;;;7.62;;
67548;SDS011;54382;53.524;49.326;2022-07-29T00:05:42;19.52;;;7.62;;
67548;SDS011;54382;53.524;49.326;2022-07-29T00:08:08;23.85;;;8.05;;
67548;SDS011;54382;53.524;49.326;2022-07-29T00:10:35;29.42;;;8.07;;
67548;SDS011;54382;53.524;49.326;2022-07-29T00:13:02;25.02;;;8.35;;
67548;SDS011;54382;53.524;49.326;2022-07-29T00:15:28;20.88;;;7.93;;
67548;SDS011;54382;53.524;49.326;2022-07-29T00:17:55;19.85;;;8.15;;
67548;SDS011;54382;53.524;49.326;2022-07-29T00:20:22;26.40;;;8.68;;
67548;SDS011;54382;53.524;49.326;2022-07-29T00:22:48;27.15;;;8.20;;
67548;SDS011;54382;53.524;49.326;2022-07-29T00:25:15;18.65;;;8.27;;
67548;SDS011;54382;53.524;49.326;2022-07-29T00:27:42;19.85;;;7.87;;
67548;SDS011;54382;53.524;49.326;2022-07-29T00:30:08;21.50;;;8.00;;
67548;SDS011;54382;53.524;49.326;2022-07-29T00:32:36;26.12;;;8.45;;
67548;SDS011;54382;53.524;49.326;2022-07-29T00:35:03;22.50;;;8.85;;
67548;SDS011;54382;53.524;49.326;2022-07-29T00:37:49;28.85;;;8.30;;
67548;SDS011;54382;53.524;49.326;2022-07-29T00:40:16;26.67;;;9.35;;
67548;SDS011;54382;53.524;49.326;2022-07-29T00:42:43;28.50;;;9.80;;
67548;SDS011;54382;53.524;49.326;2022-07-29T00:45:14;33.70;;;9.10;;
67548;SDS011;54382;53.524;49.326;2022-07-29T00:47:41;25.02;;;8.48;;
67548;SDS011;54382;53.524;49.326;2022-07-29T00:50:09;27.73;;;10.48;;
67548;SDS011;54382;53.524;49.326;2022-07-29T00:52:37;32.90;;;12.13;;
67548;SDS011;54382;53.524;49.326;2022-07-29T00:55:06;29.48;;;8.45;;
67548;SDS011;54382;53.524;49.326;2022-07-29T00:57:39;34.95;;;9.65;;
67548;SDS011;54382;53.524;49.326;2022-07-29T01:00:08;33.40;;;9.50;;
67548;SDS011;54382;53.524;49.326;2022-07-29T01:02:42;37.25;;;10.32;;
67548;SDS011;54382;53.524;49.326;2022-07-29T01:05:11;34.45;;;12.32;;
67548;SDS011;54382;53.524;49.326;2022-07-29T01:07:38;30.02;;;12.27;;
67548;SDS011;54382;53.524;49.326;2022-07-29T01:10:06;43.50;;;12.55;;
67548;SDS011;54382;53.524;49.326;2022-07-29T01:12:35;42.30;;;12.68;;
67548;SDS011;54382;53.524;49.326;2022-07-29T01:15:04;41.50;;;12.10;;
67548;SDS011;54382;53.524;49.326;2022-07-29T01:17:36;42.60;;;12.95;;
67548;SDS011;54382;53.524;49.326;2022-07-29T01:20:30;38.70;;;11.85;;
67548;SDS011;54382;53.524;49.326;2022-07-29T01:32:12;57.22;;;14.87;;
67548;SDS011;54382;53.524;49.326;2022-07-29T01:37:43;62.33;;;18.73;;
67548;SDS011;54382;53.524;49.326;2022-07-29T01:42:51;48.90;;;16.52;;
67548;SDS011;54382;53.524;49.326;2022-07-29T01:45:23;53.30;;;17.73;;
67548;SDS011;54382;53.524;49.326;2022-07-29T01:51:20;69.65;;;22.98;;
67548;SDS011;54382;53.524;49.326;2022-07-29T01:54:07;109.45;;;29.87;;
67548;SDS011;54382;53.524;49.326;2022-07-29T01:56:40;108.65;;;32.15;;
67548;SDS011;54382;53.524;49.326;2022-07-29T01:59:11;98.95;;;28.40;;
67548;SDS011;54382;53.524;49.326;2022-07-29T02:01:39;135.85;;;44.58;;
67548;SDS011;54382;53.524;49.326;2022-07-29T02:04:09;117.32;;;40.35;;
67548;SDS011;54382;53.524;49.326;2022-07-29T02:06:38;116.45;;;40.55;;
67548;SDS011;54382;53.524;49.326;2022-07-29T02:09:08;178.80;;;70.97;;
67548;SDS011;54382;53.524;49.326;2022-07-29T02:11:38;181.43;;;65.03;;
67548;SDS011;54382;53.524;49.326;2022-07-29T02:14:06;164.70;;;63.00;;
67548;SDS011;54382;53.524;49.326;2022-07-29T02:16:36;153.80;;;62.03;;
67548;SDS011;54382;53.524;49.326;2022-07-29T02:19:04;126.90;;;53.87;;
67548;SDS011;54382;53.524;49.326;2022-07-29T02:21:34;137.25;;;52.75;;
67548;SDS011;54382;53.524;49.326;2022-07-29T02:24:01;129.02;;;51.13;;
67548;SDS011;54382;53.524;49.326;2022-07-29T02:26:29;121.30;;;47.83;;
67548;SDS011;54382;53.524;49.326;2022-07-29T02:28:59;133.40;;;46.58;;
67548;SDS011;54382;53.524;49.326;2022-07-29T02:31:28;100.25;;;41.70;;
67548;SDS011;54382;53.524;49.326;2022-07-29T02:33:59;103.43;;;39.50;;
67548;SDS011;54382;53.524;49.326;2022-07-29T02:36:28;96.45;;;38.17;;
67548;SDS011;54382;53.524;49.326;2022-07-29T02:38:57;83.80;;;35.17;;
67548;SDS011;54382;53.524;49.326;2022-07-29T02:44:05;75.62;;;32.45;;
67548;SDS011;54382;53.524;49.326;2022-07-29T02:46:45;65.65;;;25.73;;
67548;SDS011;54382;53.524;49.326;2022-07-29T02:49:32;60.65;;;23.87;;
67548;SDS011;54382;53.524;49.326;2022-07-29T02:52:10;92.75;;;25.23;;
67548;SDS011;54382;53.524;49.326;2022-07-29T02:54:53;51.58;;;18.17;;
67548;SDS011;54382;53.524;49.326;2022-07-29T02:57:35;25.90;;;12.75;;
67548;SDS011;54382;53.524;49.326;2022-07-29T03:00:09;34.38;;;12.70;;
67548;SDS011;54382;53.524;49.326;2022-07-29T03:02:40;36.67;;;11.30;;
67548;SDS011;54382;53.524;49.326;2022-07-29T03:05:12;24.23;;;9.73;;
67548;SDS011;54382;53.524;49.326;2022-07-29T03:07:43;19.37;;;9.20;;
67548;SDS011;54382;53.524;49.326;2022-07-29T03:10:15;27.50;;;8.85;;
67548;SDS011;54382;53.524;49.326;2022-07-29T03:12:42;23.10;;;7.90;;
67548;SDS011;54382;53.524;49.326;2022-07-29T03:15:09;18.52;;;7.18;;
67548;SDS011;54382;53.524;49.326;2022-07-29T03:17:36;22.45;;;7.65;;
67548;SDS011;54382;53.524;49.326;2022-07-29T03:20:06;19.62;;;7.22;;
67548;SDS011;54382;53.524;49.326;2022-07-29T03:22:38;14.40;;;6.62;;
67548;SDS011;54382;53.524;49.326;2022-07-29T03:25:16;18.60;;;6.15;;
67548;SDS011;54382;53.524;49.326;2022-07-29T03:27:45;12.80;;;5.90;;
67548;SDS011;54382;53.524;49.326;2022-07-29T03:30:13;15.77;;;6.55;;
67548;SDS011;54382;53.524;49.326;2022-07-29T03:32:41;18.10;;;6.25;;
67548;SDS011;54382;53.524;49.326;2022-07-29T03:35:08;17.27;;;5.87;;
67548;SDS011;54382;53.524;49.326;2022-07-29T03:37:35;18.55;;;5.20;;
67548;SDS011;54382;53.524;49.326;2022-07-29T03:40:03;18.35;;;5.07;;
67548;SDS011;54382;53.524;49.326;2022-07-29T03:42:33;22.80;;;6.45;;
67548;SDS011;54382;53.524;49.326;2022-07-29T03:45:07;28.80;;;5.97;;
67548;SDS011;54382;53.524;49.326;2022-07-29T03:47:40;19.08;;;5.82;;
67548;SDS011;54382;53.524;49.326;2022-07-29T03:50:16;21.25;;;6.35;;
67548;SDS011;54382;53.524;49.326;2022-07-29T03:52:45;13.62;;;5.35;;
67548;SDS011;54382;53.524;49.326;2022-07-29T03:55:12;21.90;;;5.80;;
67548;SDS011;54382;53.524;49.326;2022-07-29T03:57:40;12.15;;;5.72;;
67548;SDS011;54382;53.524;49.326;2022-07-29T04:00:10;18.30;;;5.12;;
67548;SDS011;54382;53.524;49.326;2022-07-29T04:02:37;14.80;;;5.40;;
67548;SDS011;54382;53.524;49.326;2022-07-29T04:05:04;23.38;;;5.28;;
67548;SDS011;54382;53.524;49.326;2022-07-29T04:07:37;10.63;;;5.00;;
67548;SDS011;54382;53.524;49.326;2022-07-29T04:10:04;12.27;;;4.03;;
67548;SDS011;54382;53.524;49.326;2022-07-29T04:12:31;12.93;;;3.95;;
67548;SDS011;54382;53.524;49.326;2022-07-29T04:14:58;16.77;;;4.15;;
67548;SDS011;54382;53.524;49.326;2022-07-29T04:17:24;23.83;;;3.80;;
67548;SDS011;54382;53.524;49.326;2022-07-29T04:19:51;13.30;;;3.70;;
67548;SDS011;54382;53.524;49.326;2022-07-29T04:22:18;16.70;;;3.87;;
67548;SDS011;54382;53.524;49.326;2022-07-29T04:24:45;7.45;;;3.42;;
67548;SDS011;54382;53.524;49.326;2022-07-29T04:27:12;7.47;;;3.35;;
67548;SDS011;54382;53.524;49.326;2022-07-29T04:29:39;12.63;;;3.33;;
67548;SDS011;54382;53.524;49.326;2022-07-29T04:32:05;13.55;;;3.33;;
67548;SDS011;54382;53.524;49.326;2022-07-29T04:34:32;26.62;;;4.95;;
67548;SDS011;54382;53.524;49.326;2022-07-29T04:36:59;17.33;;;3.85;;
67548;SDS011;54382;53.524;49.326;2022-07-29T04:39:26;14.15;;;4.00;;
67548;SDS011;54382;53.524;49.326;2022-07-29T04:41:52;15.85;;;3.70;;
67548;SDS011;54382;53.524;49.326;2022-07-29T04:44:19;19.55;;;4.20;;
67548;SDS011;54382;53.524;49.326;2022-07-29T04:46:46;13.88;;;3.53;;
67548;SDS011;54382;53.524;49.326;2022-07-29T04:49:12;13.65;;;3.42;;
67548;SDS011;54382;53.524;49.326;2022-07-29T04:51:39;18.08;;;3.45;;
67548;SDS011;54382;53.524;49.326;2022-07-29T04:54:06;19.60;;;4.57;;
67548;SDS011;54382;53.524;49.326;2022-07-29T04:56:32;12.90;;;3.40;;
67548;SDS011;54382;53.524;49.326;2022-07-29T04:58:59;9.15;;;3.28;;
67548;SDS011;54382;53.524;49.326;2022-07-29T05:01:26;4.55;;;2.65;;
67548;SDS011;54382;53.524;49.326;2022-07-29T05:03:52;11.12;;;3.15;;
67548;SDS011;54382;53.524;49.326;2022-07-29T05:06:19;5.05;;;2.78;;
67548;SDS011;54382;53.524;49.326;2022-07-29T05:08:45;12.05;;;3.47;;
67548;SDS011;54382;53.524;49.326;2022-07-29T05:11:12;13.93;;;3.45;;
67548;SDS011;54382;53.524;49.326;2022-07-29T05:13:39;12.85;;;3.40;;
67548;SDS011;54382;53.524;49.326;2022-07-29T05:16:06;7.22;;;3.30;;
67548;SDS011;54382;53.524;49.326;2022-07-29T05:18:34;10.43;;;3.37;;
67548;SDS011;54382;53.524;49.326;2022-07-29T05:21:00;11.70;;;3.50;;
67548;SDS011;54382;53.524;49.326;2022-07-29T05:23:28;8.82;;;3.40;;
67548;SDS011;54382;53.524;49.326;2022-07-29T05:25:54;13.07;;;3.58;;
67548;SDS011;54382;53.524;49.326;2022-07-29T05:28:21;9.45;;;3.08;;
67548;SDS011;54382;53.524;49.326;2022-07-29T05:30:48;10.93;;;3.15;;
67548;SDS011;54382;53.524;49.326;2022-07-29T05:33:14;6.28;;;3.20;;
67548;SDS011;54382;53.524;49.326;2022-07-29T05:35:41;8.20;;;3.12;;
67548;SDS011;54382;53.524;49.326;2022-07-29T05:38:07;10.68;;;2.87;;
67548;SDS011;54382;53.524;49.326;2022-07-29T05:40:34;12.37;;;3.83;;
67548;SDS011;54382;53.524;49.326;2022-07-29T05:43:01;7.70;;;2.60;;
67548;SDS011;54382;53.524;49.326;2022-07-29T05:45:27;8.80;;;1.73;;
67548;SDS011;54382;53.524;49.326;2022-07-29T05:47:54;10.75;;;3.10;;
67548;SDS011;54382;53.524;49.326;2022-07-29T05:50:20;16.62;;;3.40;;
67548;SDS011;54382;53.524;49.326;2022-07-29T05:52:47;8.32;;;3.30;;
67548;SDS011;54382;53.524;49.326;2022-07-29T05:55:14;12.05;;;2.72;;
67548;SDS011;54382;53.524;49.326;2022-07-29T05:57:40;9.48;;;3.00;;
67548;SDS011;54382;53.524;49.326;2022-07-29T06:00:08;10.23;;;2.62;;
67548;SDS011;54382;53.524;49.326;2022-07-29T06:02:36;15.93;;;3.33;;
67548;SDS011;54382;53.524;49.326;2022-07-29T06:05:02;11.27;;;3.00;;
67548;SDS011;54382;53.524;49.326;2022-07-29T06:07:29;5.37;;;2.47;;
67548;SDS011;54382;53.524;49.326;2022-07-29T06:09:57;6.57;;;2.40;;
67548;SDS011;54382;53.524;49.326;2022-07-29T06:12:24;5.40;;;2.92;;
67548;SDS011;54382;53.524;49.326;2022-07-29T06:14:51;8.43;;;2.47;;
67548;SDS011;54382;53.524;49.326;2022-07-29T06:17:18;6.40;;;3.00;;
67548;SDS011;54382;53.524;49.326;2022-07-29T06:19:44;9.18;;;2.62;;
67548;SDS011;54382;53.524;49.326;2022-07-29T06:22:11;12.15;;;2.90;;
67548;SDS011;54382;53.524;49.326;2022-07-29T06:24:41;6.37;;;2.67;;
67548;SDS011;54382;53.524;49.326;2022-07-29T06:27:11;4.03;;;2.08;;
67548;SDS011;54382;53.524;49.326;2022-07-29T06:29:39;7.28;;;2.30;;
67548;SDS011;54382;53.524;49.326;2022-07-29T06:32:05;13.20;;;2.55;;
67548;SDS011;54382;53.524;49.326;2022-07-29T06:34:35;11.50;;;2.85;;
67548;SDS011;54382;53.524;49.326;2022-07-29T06:37:08;10.85;;;2.70;;
67548;SDS011;54382;53.524;49.326;2022-07-29T06:39:35;7.25;;;1.95;;
67548;SDS011;54382;53.524;49.326;2022-07-29T06:42:06;11.07;;;2.97;;
67548;SDS011;54382;53.524;49.326;2022-07-29T06:44:32;5.82;;;2.37;;
67548;SDS011;54382;53.524;49.326;2022-07-29T06:47:00;9.98;;;2.75;;
67548;SDS011;54382;53.524;49.326;2022-07-29T06:49:27;8.85;;;3.17;;
67548;SDS011;54382;53.524;49.326;2022-07-29T06:51:54;11.55;;;2.67;;
67548;SDS011;54382;53.524;49.326;2022-07-29T06:54:21;5.78;;;2.62;;
67548;SDS011;54382;53.524;49.326;2022-07-29T06:56:48;5.05;;;2.58;;
67548;SDS011;54382;53.524;49.326;2022-07-29T06:59:15;6.43;;;2.35;;
67548;SDS011;54382;53.524;49.326;2022-07-29T07:01:42;6.55;;;2.78;;
67548;SDS011;54382;53.524;49.326;2022-07-29T07:04:09;6.93;;;2.70;;
67548;SDS011;54382;53.524;49.326;2022-07-29T07:06:37;8.02;;;2.70;;
67548;SDS011;54382;53.524;49.326;2022-07-29T07:09:04;7.03;;;2.87;;
67548;SDS011;54382;53.524;49.326;2022-07-29T07:11:31;5.78;;;2.75;;
67548;SDS011;54382;53.524;49.326;2022-07-29T07:13:58;5.78;;;2.53;;
67548;SDS011;54382;53.524;49.326;2022-07-29T07:16:24;7.72;;;3.08;;
67548;SDS011;54382;53.524;49.326;2022-07-29T07:18:51;10.25;;;3.10;;
67548;SDS011;54382;53.524;49.326;2022-07-29T07:21:18;11.40;;;2.60;;
67548;SDS011;54382;53.524;49.326;2022-07-29T07:23:45;8.07;;;2.78;;
67548;SDS011;54382;53.524;49.326;2022-07-29T07:26:12;6.55;;;2.17;;
67548;SDS011;54382;53.524;49.326;2022-07-29T07:28:39;7.82;;;2.70;;
67548;SDS011;54382;53.524;49.326;2022-07-29T07:31:05;6.12;;;2.60;;
67548;SDS011;54382;53.524;49.326;2022-07-29T07:33:32;12.30;;;2.67;;
67548;SDS011;54382;53.524;49.326;2022-07-29T07:35:59;8.05;;;2.37;;
67548;SDS011;54382;53.524;49.326;2022-07-29T07:38:25;6.35;;;2.72;;
67548;SDS011;54382;53.524;49.326;2022-07-29T07:40:52;9.20;;;2.90;;
67548;SDS011;54382;53.524;49.326;2022-07-29T07:43:19;8.23;;;2.78;;
67548;SDS011;54382;53.524;49.326;2022-07-29T07:45:47;14.93;;;3.62;;
67548;SDS011;54382;53.524;49.326;2022-07-29T07:48:13;10.85;;;3.28;;
67548;SDS011;54382;53.524;49.326;2022-07-29T07:50:40;10.23;;;3.03;;
67548;SDS011;54382;53.524;49.326;2022-07-29T07:53:07;10.95;;;3.20;;
67548;SDS011;54382;53.524;49.326;2022-07-29T07:55:33;12.57;;;2.90;;
67548;SDS011;54382;53.524;49.326;2022-07-29T07:58:06;13.62;;;3.45;;
67548;SDS011;54382;53.524;49.326;2022-07-29T08:00:34;9.50;;;2.72;;
67548;SDS011;54382;53.524;49.326;2022-07-29T08:03:01;10.77;;;4.00;;
67548;SDS011;54382;53.524;49.326;2022-07-29T08:05:28;9.75;;;2.33;;
67548;SDS011;54382;53.524;49.326;2022-07-29T08:07:55;11.18;;;3.37;;
67548;SDS011;54382;53.524;49.326;2022-07-29T08:10:21;10.65;;;3.35;;
67548;SDS011;54382;53.524;49.326;2022-07-29T08:13:08;9.93;;;4.93;;
67548;SDS011;54382;53.524;49.326;2022-07-29T08:15:38;17.58;;;5.60;;
67548;SDS011;54382;53.524;49.326;2022-07-29T08:18:07;15.23;;;3.28;;
67548;SDS011;54382;53.524;49.326;2022-07-29T08:20:34;10.73;;;4.15;;
67548;SDS011;54382;53.524;49.326;2022-07-29T08:23:01;8.98;;;3.42;;
67548;SDS011;54382;53.524;49.326;2022-07-29T08:25:30;11.50;;;4.00;;
67548;SDS011;54382;53.524;49.326;2022-07-29T08:27:56;8.27;;;4.50;;
67548;SDS011;54382;53.524;49.326;2022-07-29T08:30:23;10.25;;;3.33;;
67548;SDS011;54382;53.524;49.326;2022-07-29T08:32:50;3.92;;;1.87;;
67548;SDS011;54382;53.524;49.326;2022-07-29T08:35:19;10.90;;;4.25;;
67548;SDS011;54382;53.524;49.326;2022-07-29T08:37:47;51.45;;;5.85;;
67548;SDS011;54382;53.524;49.326;2022-07-29T08:40:13;12.90;;;5.12;;
67548;SDS011;54382;53.524;49.326;2022-07-29T08:42:40;10.50;;;4.78;;
67548;SDS011;54382;53.524;49.326;2022-07-29T08:45:07;8.82;;;3.75;;
67548;SDS011;54382;53.524;49.326;2022-07-29T08:47:35;13.77;;;4.53;;
67548;SDS011;54382;53.524;49.326;2022-07-29T08:50:05;10.20;;;3.90;;
67548;SDS011;54382;53.524;49.326;2022-07-29T08:52:36;11.02;;;4.30;;
67548;SDS011;54382;53.524;49.326;2022-07-29T08:55:06;19.42;;;5.05;;
67548;SDS011;54382;53.524;49.326;2022-07-29T08:57:34;11.32;;;4.93;;
67548;SDS011;54382;53.524;49.326;2022-07-29T09:00:04;13.35;;;3.37;;
67548;SDS011;54382;53.524;49.326;2022-07-29T09:02:36;15.88;;;4.93;;
67548;SDS011;54382;53.524;49.326;2022-07-29T09:05:07;12.75;;;5.20;;
67548;SDS011;54382;53.524;49.326;2022-07-29T09:07:34;10.85;;;3.95;;
67548;SDS011;54382;53.524;49.326;2022-07-29T09:10:03;14.70;;;4.90;;
67548;SDS011;54382;53.524;49.326;2022-07-29T09:12:30;12.18;;;4.70;;
67548;SDS011;54382;53.524;49.326;2022-07-29T09:14:57;23.87;;;5.35;;
67548;SDS011;54382;53.524;49.326;2022-07-29T09:17:40;8.52;;;3.97;;
67548;SDS011;54382;53.524;49.326;2022-07-29T09:20:20;8.73;;;3.65;;
67548;SDS011;54382;53.524;49.326;2022-07-29T09:22:48;10.20;;;4.30;;
67548;SDS011;54382;53.524;49.326;2022-07-29T09:25:38;8.70;;;3.30;;
67548;SDS011;54382;53.524;49.326;2022-07-29T09:28:24;12.02;;;4.87;;
67548;SDS011;54382;53.524;49.326;2022-07-29T09:30:54;17.65;;;5.12;;
67548;SDS011;54382;53.524;49.326;2022-07-29T09:33:31;10.18;;;4.05;;
67548;SDS011;54382;53.524;49.326;2022-07-29T09:36:06;11.70;;;5.07;;
67548;SDS011;54382;53.524;49.326;2022-07-29T09:38:35;11.75;;;3.40;;
67548;SDS011;54382;53.524;49.326;2022-07-29T09:41:03;11.93;;;3.20;;
67548;SDS011;54382;53.524;49.326;2022-07-29T09:43:30;10.27;;;4.07;;
67548;SDS011;54382;53.524;49.326;2022-07-29T09:46:09;13.55;;;4.60;;
67548;SDS011;54382;53.524;49.326;2022-07-29T09:48:39;14.07;;;4.47;;
67548;SDS011;54382;53.524;49.326;2022-07-29T09:51:16;12.80;;;3.83;;
67548;SDS011;54382;53.524;49.326;2022-07-29T09:53:46;9.07;;;3.72;;
67548;SDS011;54382;53.524;49.326;2022-07-29T09:56:13;13.90;;;3.00;;
67548;SDS011;54382;53.524;49.326;2022-07-29T09:58:40;18.70;;;5.47;;
67548;SDS011;54382;53.524;49.326;2022-07-29T10:01:06;20.20;;;5.45;;
67548;SDS011;54382;53.524;49.326;2022-07-29T10:03:36;11.93;;;4.80;;
67548;SDS011;54382;53.524;49.326;2022-07-29T10:06:17;10.95;;;4.10;;
67548;SDS011;54382;53.524;49.326;2022-07-29T10:08:44;31.85;;;5.32;;
67548;SDS011;54382;53.524;49.326;2022-07-29T10:11:12;8.48;;;4.35;;
67548;SDS011;54382;53.524;49.326;2022-07-29T10:13:42;10.80;;;2.65;;
67548;SDS011;54382;53.524;49.326;2022-07-29T10:16:11;12.02;;;5.00;;
67548;SDS011;54382;53.524;49.326;2022-07-29T10:18:40;14.05;;;4.22;;
67548;SDS011;54382;53.524;49.326;2022-07-29T10:21:08;9.23;;;4.78;;
67548;SDS011;54382;53.524;49.326;2022-07-29T10:23:36;10.70;;;5.03;;
67548;SDS011;54382;53.524;49.326;2022-07-29T10:26:03;15.48;;;4.97;;
67548;SDS011;54382;53.524;49.326;2022-07-29T10:28:31;16.90;;;5.43;;
67548;SDS011;54382;53.524;49.326;2022-07-29T10:30:59;10.77;;;5.43;;
67548;SDS011;54382;53.524;49.326;2022-07-29T10:39:43;12.48;;;4.18;;
67548;SDS011;54382;53.524;49.326;2022-07-29T10:42:55;17.52;;;3.92;;
67548;SDS011;54382;53.524;49.326;2022-07-29T10:45:40;11.95;;;4.35;;
67548;SDS011;54382;53.524;49.326;2022-07-29T10:48:07;15.85;;;4.87;;
67548;SDS011;54382;53.524;49.326;2022-07-29T10:56:23;16.23;;;5.68;;
67548;SDS011;54382;53.524;49.326;2022-07-29T10:59:36;15.63;;;7.05;;
67548;SDS011;54382;53.524;49.326;2022-07-29T11:02:03;11.65;;;5.45;;
67548;SDS011;54382;53.524;49.326;2022-07-29T11:07:34;19.27;;;6.07;;
67548;SDS011;54382;53.524;49.326;2022-07-29T11:15:04;12.85;;;5.07;;
67548;SDS011;54382;53.524;49.326;2022-07-29T11:23:31;14.95;;;4.57;;
67548;SDS011;54382;53.524;49.326;2022-07-29T11:26:17;14.68;;;4.70;;
67548;SDS011;54382;53.524;49.326;2022-07-29T11:31:50;16.80;;;5.10;;
67548;SDS011;54382;53.524;49.326;2022-07-29T11:40:21;15.48;;;4.35;;
67548;SDS011;54382;53.524;49.326;2022-07-29T11:47:33;6.43;;;3.57;;
67548;SDS011;54382;53.524;49.326;2022-07-29T11:50:11;6.72;;;3.67;;
67548;SDS011;54382;53.524;49.326;2022-07-29T11:55:19;11.90;;;3.95;;
67548;SDS011;54382;53.524;49.326;2022-07-29T11:57:49;12.63;;;4.10;;
67548;SDS011;54382;53.524;49.326;2022-07-29T12:00:21;6.82;;;3.55;;
67548;SDS011;54382;53.524;49.326;2022-07-29T12:02:50;9.75;;;4.15;;
67548;SDS011;54382;53.524;49.326;2022-07-29T12:05:17;7.78;;;3.95;;
67548;SDS011;54382;53.524;49.326;2022-07-29T12:07:46;9.00;;;3.55;;
67548;SDS011;54382;53.524;49.326;2022-07-29T12:10:14;9.13;;;4.57;;
67548;SDS011;54382;53.524;49.326;2022-07-29T12:12:41;10.52;;;4.28;;
67548;SDS011;54382;53.524;49.326;2022-07-29T12:15:14;19.70;;;4.75;;
67548;SDS011;54382;53.524;49.326;2022-07-29T12:17:45;7.65;;;4.00;;
67548;SDS011;54382;53.524;49.326;2022-07-29T12:20:13;11.18;;;4.80;;
67548;SDS011;54382;53.524;49.326;2022-07-29T12:22:53;8.10;;;4.07;;
67548;SDS011;54382;53.524;49.326;2022-07-29T12:25:22;14.85;;;4.70;;
67548;SDS011;54382;53.524;49.326;2022-07-29T12:27:59;14.98;;;5.70;;
67548;SDS011;54382;53.524;49.326;2022-07-29T12:30:36;9.40;;;5.07;;
67548;SDS011;54382;53.524;49.326;2022-07-29T12:33:12;11.82;;;4.75;;
67548;SDS011;54382;53.524;49.326;2022-07-29T12:35:39;9.43;;;4.82;;
67548;SDS011;54382;53.524;49.326;2022-07-29T12:38:10;16.58;;;5.10;;
67548;SDS011;54382;53.524;49.326;2022-07-29T12:40:37;8.73;;;4.43;;
67548;SDS011;54382;53.524;49.326;2022-07-29T12:43:15;8.27;;;4.10;;
67548;SDS011;54382;53.524;49.326;2022-07-29T12:45:47;8.00;;;4.20;;
67548;SDS011;54382;53.524;49.326;2022-07-29T12:48:17;11.02;;;4.47;;
67548;SDS011;54382;53.524;49.326;2022-07-29T12:51:01;14.87;;;4.70;;
67548;SDS011;54382;53.524;49.326;2022-07-29T12:53:29;14.52;;;4.62;;
67548;SDS011;54382;53.524;49.326;2022-07-29T12:55:56;11.93;;;4.82;;
67548;SDS011;54382;53.524;49.326;2022-07-29T13:01:11;21.15;;;5.10;;
67548;SDS011;54382;53.524;49.326;2022-07-29T13:03:43;19.08;;;5.62;;
67548;SDS011;54382;53.524;49.326;2022-07-29T13:11:48;12.60;;;5.37;;
67548;SDS011;54382;53.524;49.326;2022-07-29T13:14:30;16.98;;;5.50;;
67548;SDS011;54382;53.524;49.326;2022-07-29T13:17:06;10.38;;;6.00;;
67548;SDS011;54382;53.524;49.326;2022-07-29T13:19:39;12.75;;;5.03;;
67548;SDS011;54382;53.524;49.326;2022-07-29T13:22:15;11.93;;;5.32;;
67548;SDS011;54382;53.524;49.326;2022-07-29T13:24:51;7.60;;;4.80;;
67548;SDS011;54382;53.524;49.326;2022-07-29T13:27:21;12.57;;;5.22;;
67548;SDS011;54382;53.524;49.326;2022-07-29T13:29:54;12.95;;;4.87;;
67548;SDS011;54382;53.524;49.326;2022-07-29T13:32:23;15.30;;;5.82;;
67548;SDS011;54382;53.524;49.326;2022-07-29T13:34:51;14.80;;;6.25;;
67548;SDS011;54382;53.524;49.326;2022-07-29T13:37:18;13.30;;;5.72;;
67548;SDS011;54382;53.524;49.326;2022-07-29T13:39:45;20.40;;;6.00;;
67548;SDS011;54382;53.524;49.326;2022-07-29T13:42:13;11.50;;;5.70;;
67548;SDS011;54382;53.524;49.326;2022-07-29T13:44:40;14.38;;;5.97;;
67548;SDS011;54382;53.524;49.326;2022-07-29T13:47:07;14.73;;;5.82;;
67548;SDS011;54382;53.524;49.326;2022-07-29T13:49:34;20.12;;;5.80;;
67548;SDS011;54382;53.524;49.326;2022-07-29T13:52:02;16.73;;;5.65;;
67548;SDS011;54382;53.524;49.326;2022-07-29T13:54:32;10.00;;;6.10;;
67548;SDS011;54382;53.524;49.326;2022-07-29T13:57:03;16.27;;;5.60;;
67548;SDS011;54382;53.524;49.326;2022-07-29T13:59:30;11.23;;;5.82;;
67548;SDS011;54382;53.524;49.326;2022-07-29T14:01:57;9.93;;;5.40;;
67548;SDS011;54382;53.524;49.326;2022-07-29T14:04:23;15.80;;;6.12;;
67548;SDS011;54382;53.524;49.326;2022-07-29T14:06:50;17.25;;;6.30;;
67548;SDS011;54382;53.524;49.326;2022-07-29T14:09:17;14.13;;;5.57;;
67548;SDS011;54382;53.524;49.326;2022-07-29T14:11:44;21.73;;;7.18;;
67548;SDS011;54382;53.524;49.326;2022-07-29T14:14:13;16.40;;;6.30;;
67548;SDS011;54382;53.524;49.326;2022-07-29T14:16:39;12.20;;;5.50;;
67548;SDS011;54382;53.524;49.326;2022-07-29T14:19:06;16.90;;;5.47;;
67548;SDS011;54382;53.524;49.326;2022-07-29T14:21:33;12.23;;;5.47;;
67548;SDS011;54382;53.524;49.326;2022-07-29T14:23:59;16.40;;;5.35;;
67548;SDS011;54382;53.524;49.326;2022-07-29T14:26:26;18.62;;;5.53;;
67548;SDS011;54382;53.524;49.326;2022-07-29T14:28:53;18.58;;;5.87;;
67548;SDS011;54382;53.524;49.326;2022-07-29T14:31:19;19.37;;;5.28;;
67548;SDS011;54382;53.524;49.326;2022-07-29T14:33:46;20.05;;;5.07;;
67548;SDS011;54382;53.524;49.326;2022-07-29T14:36:13;14.80;;;5.53;;
67548;SDS011;54382;53.524;49.326;2022-07-29T14:38:39;13.07;;;5.30;;
67548;SDS011;54382;53.524;49.326;2022-07-29T14:41:07;10.00;;;5.47;;
67548;SDS011;54382;53.524;49.326;2022-07-29T14:43:34;11.77;;;4.95;;
67548;SDS011;54382;53.524;49.326;2022-07-29T14:46:01;19.05;;;5.30;;
67548;SDS011;54382;53.524;49.326;2022-07-29T14:48:28;13.07;;;4.78;;
67548;SDS011;54382;53.524;49.326;2022-07-29T14:50:54;15.32;;;4.80;;
67548;SDS011;54382;53.524;49.326;2022-07-29T14:53:21;24.27;;;5.80;;
67548;SDS011;54382;53.524;49.326;2022-07-29T14:55:48;23.85;;;5.20;;
67548;SDS011;54382;53.524;49.326;2022-07-29T14:58:15;17.45;;;4.93;;
67548;SDS011;54382;53.524;49.326;2022-07-29T15:00:42;11.23;;;4.30;;
67548;SDS011;54382;53.524;49.326;2022-07-29T15:03:09;29.77;;;4.97;;
67548;SDS011;54382;53.524;49.326;2022-07-29T15:05:35;17.05;;;4.75;;
67548;SDS011;54382;53.524;49.326;2022-07-29T15:08:03;17.05;;;4.65;;
67548;SDS011;54382;53.524;49.326;2022-07-29T15:10:30;21.05;;;4.70;;
67548;SDS011;54382;53.524;49.326;2022-07-29T15:12:56;26.42;;;4.80;;
67548;SDS011;54382;53.524;49.326;2022-07-29T15:15:23;13.88;;;4.78;;
67548;SDS011;54382;53.524;49.326;2022-07-29T15:17:50;13.05;;;5.45;;
67548;SDS011;54382;53.524;49.326;2022-07-29T15:20:17;47.08;;;6.43;;
67548;SDS011;54382;53.524;49.326;2022-07-29T15:22:44;8.93;;;4.60;;
67548;SDS011;54382;53.524;49.326;2022-07-29T15:25:11;21.23;;;5.20;;
67548;SDS011;54382;53.524;49.326;2022-07-29T15:27:38;13.90;;;4.78;;
67548;SDS011;54382;53.524;49.326;2022-07-29T15:30:04;17.23;;;4.60;;
67548;SDS011;54382;53.524;49.326;2022-07-29T15:32:32;11.40;;;4.12;;
67548;SDS011;54382;53.524;49.326;2022-07-29T15:34:59;13.88;;;4.20;;
67548;SDS011;54382;53.524;49.326;2022-07-29T15:37:28;22.65;;;5.57;;
67548;SDS011;54382;53.524;49.326;2022-07-29T15:39:55;25.27;;;4.93;;
67548;SDS011;54382;53.524;49.326;2022-07-29T15:42:22;12.13;;;4.30;;
67548;SDS011;54382;53.524;49.326;2022-07-29T15:44:48;19.05;;;5.55;;